Terminal Aerodrome Forecast
Issued by NWS Charleston, SC

Home | Current Version | Previous Version | Text Only | Print | Product List | Glossary On
Versions: 1 2 3 4 5 6 7 8 9 10 11 12 13 14 15
000
FTUS42 KCHS 100500
TAFCHS
TAF
KCHS 100531Z 1006/1106 21007KT P6SM SCT015 SCT080 BKN200
     FM101900 19013G18KT P6SM VCTS SCT030CB BKN120
     FM110200 20007KT P6SM SCT015 SCT080 BKN150=

USA.gov is the U.S. government's official web portal to all federal, state and local government web resources and services.